createdAt,value
2022-08-05T00:01:28.384Z,101190.22
2022-08-05T00:03:56.992Z,101183.88
2022-08-05T00:06:32.322Z,101187.47
2022-08-05T00:09:00.423Z,101188.09
2022-08-05T00:11:30.176Z,101178.03
2022-08-05T00:14:01.341Z,101179.72
2022-08-05T00:16:35.931Z,101181.81
2022-08-05T00:19:04.234Z,101188.31
2022-08-05T00:21:30.824Z,101182.00
2022-08-05T00:24:10.114Z,101179.91
2022-08-05T00:26:37.410Z,101171.69
2022-08-05T00:29:03.837Z,101168.72
2022-08-05T00:31:53.134Z,101175.06
2022-08-05T00:34:56.863Z,101180.16
2022-08-05T00:37:10.726Z,101167.44
2022-08-05T00:39:57.341Z,101173.38
2022-08-05T00:42:35.418Z,101175.72
2022-08-05T00:45:05.584Z,101181.22
2022-08-05T00:47:57.228Z,101186.44
2022-08-05T00:50:21.809Z,101189.25
2022-08-05T00:52:52.180Z,101185.84
2022-08-05T00:55:19.932Z,101190.94
2022-08-05T00:57:58.089Z,101202.13
2022-08-05T01:00:30.408Z,101198.72
2022-08-05T01:02:59.682Z,101185.84
2022-08-05T01:05:27.372Z,101188.59
2022-08-05T01:08:30.292Z,101179.38
2022-08-05T01:10:52.584Z,101188.44
2022-08-05T01:13:58.823Z,101191.19
2022-08-05T01:16:44.991Z,101185.47
2022-08-05T01:19:46.282Z,101191.56
2022-08-05T01:22:39.572Z,101198.81
2022-08-05T01:25:40.658Z,101199.59
2022-08-05T01:28:18.072Z,101199.41
2022-08-05T01:30:56.884Z,101205.59
2022-08-05T01:33:35.362Z,101209.31
2022-08-05T01:36:08.563Z,101214.81
2022-08-05T01:38:40.968Z,101207.72
2022-08-05T01:41:08.818Z,101207.25
2022-08-05T01:43:37.794Z,101211.50
2022-08-05T01:46:16.503Z,101227.75
2022-08-05T01:48:55.946Z,101241.22
2022-08-05T01:51:23.789Z,101236.78
2022-08-05T01:53:57.823Z,101225.63
2022-08-05T01:58:09.565Z,101230.47
2022-08-05T01:59:20.622Z,101234.88
2022-08-05T02:01:50.081Z,101222.84
2022-08-05T02:04:19.033Z,101228.34
2022-08-05T02:06:45.679Z,101225.59
2022-08-05T02:09:14.601Z,101227.75
2022-08-05T02:11:55.568Z,101220.13
2022-08-05T02:14:32.334Z,101220.78
2022-08-05T02:17:17.069Z,101227.31
2022-08-05T02:20:07.034Z,101223.53
2022-08-05T02:22:42.110Z,101223.31
2022-08-05T02:25:19.522Z,101233.44
2022-08-05T02:27:58.964Z,101239.53
2022-08-05T02:30:34.399Z,101239.53
2022-08-05T02:33:03.225Z,101232.38
2022-08-05T02:35:37.672Z,101201.63
2022-08-05T02:38:12.451Z,101198.03
2022-08-05T02:40:46.458Z,101195.94
2022-08-05T02:43:16.677Z,101203.09
2022-08-05T02:45:51.906Z,101210.06
2022-08-05T02:48:28.954Z,101207.72
2022-08-05T02:50:59.890Z,101204.34
2022-08-05T02:53:29.130Z,101190.88
2022-08-05T02:56:08.374Z,101198.66
2022-08-05T02:58:36.719Z,101200.78
2022-08-05T03:01:16.971Z,101209.19
2022-08-05T03:04:02.812Z,101200.56
2022-08-05T03:06:56.649Z,101208.56
2022-08-05T03:09:27.143Z,101217.63
2022-08-05T03:12:04.819Z,101221.63
2022-08-05T03:14:31.222Z,101228.81
2022-08-05T03:16:57.672Z,101221.84
2022-08-05T03:19:33.968Z,101224.81
2022-08-05T03:22:01.336Z,101230.94
2022-08-05T03:24:30.656Z,101217.84
2022-08-05T03:26:59.343Z,101213.22
2022-08-05T03:29:46.030Z,101201.22
2022-08-05T03:32:14.358Z,101205.00
2022-08-05T03:34:42.226Z,101206.25
2022-08-05T03:37:18.951Z,101206.22
2022-08-05T03:40:08.805Z,101200.75
2022-08-05T03:42:51.419Z,101216.78
2022-08-05T03:45:21.706Z,101213.63
2022-08-05T03:47:49.941Z,101209.19
2022-08-05T03:50:16.480Z,101220.78
2022-08-05T03:55:52.581Z,101225.00
2022-08-05T03:55:52.829Z,101225.88
2022-08-05T03:58:37.846Z,101223.31
2022-08-05T04:01:11.378Z,101223.94
2022-08-05T04:03:42.336Z,101214.03
2022-08-05T04:06:29.441Z,101203.94
2022-08-05T04:08:56.872Z,101210.88
2022-08-05T04:11:24.129Z,101207.50
2022-08-05T04:14:10.951Z,101203.50
2022-08-05T04:16:44.971Z,101203.50
2022-08-05T04:19:13.190Z,101197.81
2022-08-05T04:22:05.204Z,101198.66
2022-08-05T04:24:27.748Z,101201.59
2022-08-05T04:26:54.230Z,101202.84
2022-08-05T04:29:20.910Z,101208.13
2022-08-05T04:31:48.437Z,101209.41
2022-08-05T04:34:31.270Z,101212.97
2022-08-05T04:37:01.571Z,101220.34
2022-08-05T04:39:30.632Z,101221.41
2022-08-05T04:41:57.071Z,101219.09
2022-08-05T04:44:29.598Z,101224.56
2022-08-05T04:46:58.810Z,101227.75
2022-08-05T04:49:38.977Z,101232.56
2022-08-05T04:52:12.415Z,101240.78
2022-08-05T04:54:38.925Z,101242.28
2022-08-05T04:57:05.522Z,101234.25
2022-08-05T04:59:38.917Z,101235.09
2022-08-05T05:02:37.470Z,101231.31
2022-08-05T05:04:52.904Z,101239.94
2022-08-05T05:07:29.708Z,101244.78
2022-08-05T05:09:59.040Z,101240.97
2022-08-05T05:12:29.124Z,101239.53
2022-08-05T05:14:55.561Z,101248.31
2022-08-05T05:17:24.510Z,101254.44
2022-08-05T05:19:54.742Z,101251.97
2022-08-05T05:22:23.045Z,101254.03
2022-08-05T05:24:56.804Z,101250.88
2022-08-05T05:27:25.231Z,101249.81
2022-08-05T05:30:15.338Z,101247.31
2022-08-05T05:32:42.233Z,101254.47
2022-08-05T05:35:09.417Z,101256.59
2022-08-05T05:37:59.511Z,101255.31
2022-08-05T05:40:28.391Z,101255.09
2022-08-05T05:42:55.306Z,101252.75
2022-08-05T05:45:23.376Z,101251.94
2022-08-05T05:48:06.314Z,101258.22
2022-08-05T05:50:41.312Z,101263.69
2022-08-05T05:53:21.558Z,101263.28
2022-08-05T05:55:51.892Z,101262.69
2022-08-05T05:58:31.484Z,101267.50
2022-08-05T06:01:02.561Z,101271.31
2022-08-05T06:03:53.770Z,101278.91
2022-08-05T06:06:27.964Z,101274.91
2022-08-05T06:08:57.947Z,101273.41
2022-08-05T06:11:24.525Z,101279.31
2022-08-05T06:13:54.158Z,101285.84
2022-08-05T06:16:30.901Z,101284.19
2022-08-05T06:19:05.947Z,101287.84
2022-08-05T06:21:36.719Z,101282.34
2022-08-05T06:24:11.458Z,101281.72
2022-08-05T06:26:38.825Z,101286.34
2022-08-05T06:29:23.817Z,101297.50
2022-08-05T06:31:52.475Z,101289.91
2022-08-05T06:34:20.143Z,101288.00
2022-08-05T06:36:57.136Z,101277.66
2022-08-05T06:39:27.097Z,101290.72
2022-08-05T06:41:54.170Z,101297.88
2022-08-05T06:44:22.050Z,101297.84
2022-08-05T06:46:50.824Z,101289.22
2022-08-05T06:49:17.758Z,101292.78
2022-08-05T06:51:45.594Z,101292.78
2022-08-05T06:54:19.131Z,101287.53
2022-08-05T06:56:55.154Z,101292.56
2022-08-05T06:59:38.732Z,101297.38
2022-08-05T07:02:08.891Z,101298.00
2022-08-05T07:04:35.847Z,101291.44
2022-08-05T07:07:03.083Z,101300.31
2022-08-05T07:09:40.503Z,101296.88
2022-08-05T07:12:07.709Z,101292.00
2022-08-05T07:14:53.942Z,101300.66
2022-08-05T07:18:02.048Z,101318.16
2022-08-05T07:22:54.335Z,101326.88
2022-08-05T07:25:53.829Z,101334.66
2022-08-05T07:28:11.445Z,101330.66
2022-08-05T07:30:39.678Z,101343.44
2022-08-05T07:33:10.665Z,101346.78
2022-08-05T07:36:02.761Z,101357.28
2022-08-05T07:38:34.192Z,101356.44
2022-08-05T07:42:07.172Z,101361.81
2022-08-05T07:43:58.159Z,101359.31
2022-08-05T07:46:27.019Z,101354.69
2022-08-05T07:49:02.172Z,101355.22
2022-08-05T07:51:37.174Z,101358.03
2022-08-05T07:54:08.332Z,101347.16
2022-08-05T07:57:00.233Z,101358.66
2022-08-05T07:59:30.954Z,101354.53
2022-08-05T08:02:07.181Z,101369.56
2022-08-05T08:04:42.006Z,101366.25
2022-08-05T08:07:08.417Z,101370.84
2022-08-05T08:09:35.343Z,101367.13
2022-08-05T08:12:12.486Z,101367.97
2022-08-05T08:14:47.015Z,101367.22
2022-08-05T08:17:15.796Z,101370.16
2022-08-05T08:20:21.789Z,101368.84
2022-08-05T08:22:30.472Z,101368.25
2022-08-05T08:25:02.861Z,101376.81
2022-08-05T08:27:37.997Z,101371.16
2022-08-05T08:30:19.660Z,101377.69
2022-08-05T08:32:58.326Z,101382.84
2022-08-05T08:35:34.729Z,101382.31
2022-08-05T08:38:07.187Z,101383.31
2022-08-05T08:40:35.267Z,101389.16
2022-08-05T08:45:16.088Z,101391.00
2022-08-05T08:45:52.773Z,101397.09
2022-08-05T08:48:36.121Z,101395.19
2022-08-05T08:51:30.649Z,101401.34
2022-08-05T08:53:53.622Z,101408.09
2022-08-05T08:56:22.179Z,101404.94
2022-08-05T08:58:48.954Z,101402.44
2022-08-05T09:01:18.965Z,101412.38
2022-08-05T09:03:55.332Z,101412.56
2022-08-05T09:06:29.343Z,101414.34
2022-08-05T09:09:00.998Z,101411.31
2022-08-05T09:11:52.034Z,101412.34
2022-08-05T09:14:57.503Z,101407.16
2022-08-05T09:17:03.854Z,101417.63
2022-08-05T09:19:36.859Z,101417.19
2022-08-05T09:22:31.219Z,101422.16
2022-08-05T09:25:00.505Z,101417.66
2022-08-05T09:28:04.149Z,101412.13
2022-08-05T09:30:26.374Z,101425.69
2022-08-05T09:32:53.631Z,101431.56
2022-08-05T09:35:27.226Z,101422.75
2022-08-05T09:38:12.631Z,101437.81
2022-08-05T09:40:52.010Z,101440.41
2022-08-05T09:43:40.503Z,101441.31
2022-08-05T09:46:27.575Z,101447.28
2022-08-05T09:49:07.039Z,101450.50
2022-08-05T09:51:38.172Z,101455.44
2022-08-05T09:54:10.024Z,101468.59
2022-08-05T09:56:38.012Z,101468.16
2022-08-05T09:59:05.623Z,101469.88
2022-08-05T10:01:33.911Z,101470.50
2022-08-05T10:04:09.994Z,101478.13
2022-08-05T10:06:37.561Z,101465.38
2022-08-05T10:09:25.343Z,101464.06
2022-08-05T10:11:55.011Z,101475.50
2022-08-05T10:14:28.089Z,101478.00
2022-08-05T10:17:36.781Z,101473.59
2022-08-05T10:20:03.903Z,101483.44
2022-08-05T10:22:42.775Z,101482.78
2022-08-05T10:25:10.274Z,101482.53
2022-08-05T10:28:13.878Z,101479.09
2022-08-05T10:31:20.412Z,101478.31
2022-08-05T10:33:15.318Z,101482.56
2022-08-05T10:35:44.155Z,101484.69
2022-08-05T10:38:12.865Z,101480.66
2022-08-05T10:40:58.108Z,101485.44
2022-08-05T10:43:49.902Z,101478.72
2022-08-05T10:46:18.177Z,101479.56
2022-08-05T10:49:02.750Z,101483.19
2022-08-05T10:51:59.804Z,101496.56
2022-08-05T10:55:02.384Z,101504.16
2022-08-05T10:57:33.842Z,101500.09
2022-08-05T11:00:19.711Z,101511.66
2022-08-05T11:03:24.452Z,101521.03
2022-08-05T11:06:14.562Z,101532.22
2022-08-05T11:09:13.008Z,101541.28
2022-08-05T11:11:52.244Z,101538.38
2022-08-05T11:17:59.953Z,101535.78
2022-08-05T11:20:45.226Z,101549.34
2022-08-05T11:23:33.454Z,101549.69
2022-08-05T11:26:11.711Z,101544.16
2022-08-05T11:28:44.266Z,101539.84
2022-08-05T11:31:10.591Z,101537.44
2022-08-05T11:33:46.640Z,101546.75
2022-08-05T11:36:34.662Z,101555.22
2022-08-05T11:39:04.137Z,101551.53
2022-08-05T11:42:01.232Z,101553.00
2022-08-05T11:44:41.270Z,101564.28
2022-08-05T11:47:10.986Z,101569.31
2022-08-05T11:49:39.650Z,101569.94
2022-08-05T11:52:11.301Z,101577.72
2022-08-05T11:54:40.450Z,101576.72
2022-08-05T11:57:24.859Z,101582.31
2022-08-05T11:59:54.196Z,101577.91
2022-08-05T12:02:31.510Z,101590.06
2022-08-05T12:05:00.873Z,101592.56
2022-08-05T12:08:08.341Z,101596.94
2022-08-05T12:10:25.230Z,101605.06
2022-08-05T12:13:15.563Z,101606.88
2022-08-05T12:15:44.915Z,101608.91
2022-08-05T12:18:12.337Z,101605.38
2022-08-05T12:20:39.306Z,101619.59
2022-08-05T12:23:12.299Z,101605.66
2022-08-05T12:25:51.721Z,101615.25
2022-08-05T12:28:40.068Z,101627.66
2022-08-05T12:31:08.658Z,101626.09
2022-08-05T12:33:36.709Z,101614.50
2022-08-05T12:36:08.379Z,101620.28
2022-08-05T12:38:40.287Z,101616.53
2022-08-05T12:41:13.516Z,101619.38
2022-08-05T12:43:57.554Z,101622.94
2022-08-05T12:46:29.343Z,101629.38
2022-08-05T12:49:14.459Z,101626.38
2022-08-05T12:52:10.625Z,101632.19
2022-08-05T12:54:43.499Z,101633.13
2022-08-05T12:57:13.097Z,101640.53
2022-08-05T13:01:57.568Z,101636.81
2022-08-05T13:02:42.191Z,101646.19
2022-08-05T13:05:14.679Z,101645.03
2022-08-05T13:07:59.958Z,101647.81
2022-08-05T13:10:28.636Z,101652.06
2022-08-05T13:12:58.036Z,101656.13
2022-08-05T13:15:41.941Z,101645.22
2022-08-05T13:18:20.732Z,101648.63
2022-08-05T13:20:49.739Z,101650.78
2022-08-05T13:23:18.187Z,101649.72
2022-08-05T13:25:51.613Z,101652.38
2022-08-05T13:28:25.685Z,101658.28
2022-08-05T13:30:53.365Z,101649.69
2022-08-05T13:34:24.079Z,101659.84
2022-08-05T13:36:07.094Z,101664.13
2022-08-05T13:38:38.418Z,101661.53
2022-08-05T13:41:09.323Z,101669.38
2022-08-05T13:43:45.475Z,101668.94
2022-08-05T13:49:12.048Z,101670.19
2022-08-05T13:51:40.900Z,101670.94
2022-08-05T13:54:12.912Z,101686.66
2022-08-05T13:56:45.443Z,101699.00
2022-08-05T13:59:21.033Z,101690.84
2022-08-05T14:01:57.511Z,101695.06
2022-08-05T14:04:52.684Z,101702.03
2022-08-05T14:07:25.850Z,101698.19
2022-08-05T14:10:18.678Z,101699.00
2022-08-05T14:12:54.982Z,101709.81
2022-08-05T14:16:05.143Z,101721.66
2022-08-05T14:18:14.740Z,101714.47
2022-08-05T14:20:46.760Z,101719.31
2022-08-05T14:23:13.821Z,101720.81
2022-08-05T14:25:43.591Z,101721.56
2022-08-05T14:28:26.084Z,101726.38
2022-08-05T14:30:53.668Z,101731.09
2022-08-05T14:33:22.573Z,101729.63
2022-08-05T14:35:50.679Z,101727.47
2022-08-05T14:38:33.152Z,101727.72
2022-08-05T14:41:07.474Z,101734.66
2022-08-05T14:43:59.722Z,101739.59
2022-08-05T14:46:28.690Z,101730.91
2022-08-05T14:48:58.709Z,101721.91
2022-08-05T14:51:30.793Z,101732.66
2022-08-05T14:54:28.817Z,101730.63
2022-08-05T14:56:47.024Z,101740.38
2022-08-05T14:59:14.242Z,101734.28
2022-08-05T15:01:48.143Z,101734.56
2022-08-05T15:04:15.980Z,101728.31
2022-08-05T15:06:42.393Z,101733.09
2022-08-05T15:09:15.930Z,101735.78
2022-08-05T15:11:51.110Z,101735.91
2022-08-05T15:14:35.937Z,101733.28
2022-08-05T15:17:09.881Z,101729.19
2022-08-05T15:19:53.572Z,101738.88
2022-08-05T15:22:21.676Z,101744.28
2022-08-05T15:24:54.075Z,101742.28
2022-08-05T15:27:20.520Z,101747.34
2022-08-05T15:29:47.062Z,101748.81
2022-08-05T15:32:16.433Z,101750.03
2022-08-05T15:34:43.143Z,101747.19
2022-08-05T15:37:14.167Z,101756.13
2022-08-05T15:40:58.547Z,101748.94
2022-08-05T15:42:50.320Z,101759.38
2022-08-05T15:45:15.518Z,101758.66
2022-08-05T15:47:43.460Z,101760.03
2022-08-05T15:50:15.319Z,101766.16
2022-08-05T15:52:52.599Z,101760.19
2022-08-05T15:55:24.665Z,101752.75
2022-08-05T15:58:09.027Z,101755.63
2022-08-05T16:00:50.583Z,101753.19
2022-08-05T16:03:21.885Z,101753.22
2022-08-05T16:05:52.440Z,101764.00
2022-08-05T16:08:19.258Z,101770.16
2022-08-05T16:10:45.669Z,101772.56
2022-08-05T16:13:12.597Z,101768.50
2022-08-05T16:15:51.745Z,101769.81
2022-08-05T16:18:18.659Z,101774.78
2022-08-05T16:20:46.354Z,101772.03
2022-08-05T16:23:12.880Z,101769.88
2022-08-05T16:25:39.476Z,101780.53
2022-08-05T16:28:09.808Z,101777.97
2022-08-05T16:30:37.143Z,101777.31
2022-08-05T16:33:03.786Z,101779.13
2022-08-05T16:35:32.331Z,101790.31
2022-08-05T16:38:03.039Z,101792.16
2022-08-05T16:40:51.905Z,101796.28
2022-08-05T16:43:23.976Z,101800.91
2022-08-05T16:46:04.819Z,101800.72
2022-08-05T16:48:35.357Z,101798.28
2022-08-05T16:51:02.364Z,101806.59
2022-08-05T16:54:05.155Z,101814.50
2022-08-05T16:56:22.081Z,101813.38
2022-08-05T16:58:50.016Z,101815.38
2022-08-05T17:01:16.669Z,101819.41
2022-08-05T17:03:45.434Z,101819.69
2022-08-05T17:06:12.028Z,101821.72
2022-08-05T17:08:52.928Z,101829.47
2022-08-05T17:11:23.765Z,101828.50
2022-08-05T17:14:00.398Z,101827.38
2022-08-05T17:16:36.352Z,101838.53
2022-08-05T17:19:07.491Z,101833.44
2022-08-05T17:21:36.878Z,101843.63
2022-08-05T17:24:28.245Z,101841.97
2022-08-05T17:26:55.782Z,101855.00
2022-08-05T17:29:34.086Z,101850.78
2022-08-05T17:32:11.940Z,101849.94
2022-08-05T17:34:43.685Z,101849.19
2022-08-05T17:37:27.296Z,101848.78
2022-08-05T17:39:56.619Z,101855.13
2022-08-05T17:42:32.245Z,101861.53
2022-08-05T17:45:00.227Z,101876.75
2022-08-05T17:47:36.699Z,101869.34
2022-08-05T17:50:10.760Z,101877.81
2022-08-05T17:52:53.120Z,101884.22
2022-08-05T17:55:22.120Z,101886.97
2022-08-05T17:57:50.292Z,101890.59
2022-08-05T18:00:17.554Z,101893.50
2022-08-05T18:02:46.696Z,101899.44
2022-08-05T18:05:13.737Z,101899.44
2022-08-05T18:07:44.434Z,101898.34
2022-08-05T18:10:14.102Z,101899.44
2022-08-05T18:12:48.394Z,101903.00
2022-08-05T18:15:14.922Z,101902.13
2022-08-05T18:17:58.926Z,101912.28
2022-08-05T18:20:29.401Z,101914.16
2022-08-05T18:23:00.753Z,101909.09
2022-08-05T18:25:39.187Z,101917.50
2022-08-05T18:28:06.939Z,101922.59
2022-08-05T18:30:34.539Z,101931.88
2022-08-05T18:33:02.300Z,101931.53
2022-08-05T18:36:01.197Z,101923.28
2022-08-05T18:38:19.135Z,101935.00
2022-08-05T18:41:56.551Z,101939.16
2022-08-05T18:43:38.345Z,101943.69
2022-08-05T18:46:10.144Z,101946.78
2022-08-05T18:48:41.868Z,101950.44
2022-08-05T18:52:04.281Z,101957.88
2022-08-05T18:54:14.325Z,101955.72
2022-08-05T18:56:40.743Z,101955.72
2022-08-05T18:59:43.728Z,101964.75
2022-08-05T19:01:56.777Z,101960.53
2022-08-05T19:04:24.506Z,101966.97
2022-08-05T19:06:51.574Z,101968.56
2022-08-05T19:09:20.155Z,101975.69
2022-08-05T19:12:00.231Z,101969.31
2022-08-05T19:14:44.791Z,101979.59
2022-08-05T19:17:16.753Z,101981.53
2022-08-05T19:19:46.814Z,101986.16
2022-08-05T19:22:17.039Z,101990.13
2022-08-05T19:24:55.842Z,101997.84
2022-08-05T19:27:23.640Z,101994.88
2022-08-05T19:29:50.298Z,102000.97
2022-08-05T19:32:17.244Z,102005.06
2022-08-05T19:34:55.289Z,102002.78
2022-08-05T19:37:35.111Z,102001.06
2022-08-05T19:40:10.540Z,102009.47
2022-08-05T19:42:38.803Z,102014.63
2022-08-05T19:45:07.045Z,102017.63
2022-08-05T19:47:37.372Z,102018.38
2022-08-05T19:50:06.059Z,102023.50
2022-08-05T19:52:34.482Z,102019.81
2022-08-05T19:55:07.261Z,102026.72
2022-08-05T19:58:06.830Z,102030.88
2022-08-05T20:00:35.435Z,102030.50
2022-08-05T20:03:01.868Z,102035.78
2022-08-05T20:05:43.200Z,102038.31
2022-08-05T20:08:10.183Z,102047.03
2022-08-05T20:10:36.650Z,102038.69
2022-08-05T20:13:03.375Z,102044.16
2022-08-05T20:15:51.612Z,102044.09
2022-08-05T20:18:32.705Z,102052.78
2022-08-05T20:21:01.692Z,102059.34
2022-08-05T20:23:40.450Z,102053.69
2022-08-05T20:26:23.321Z,102056.03
2022-08-05T20:28:53.903Z,102057.84
2022-08-05T20:31:37.052Z,102064.22
2022-08-05T20:34:12.533Z,102073.03
2022-08-05T20:36:43.161Z,102077.84
2022-08-05T20:39:12.955Z,102077.34
2022-08-05T20:41:44.526Z,102079.41
2022-08-05T20:44:17.591Z,102085.50
2022-08-05T20:46:55.164Z,102091.44
2022-08-05T20:49:24.508Z,102082.22
2022-08-05T20:51:54.116Z,102094.44
2022-08-05T20:54:20.972Z,102090.19
2022-08-05T20:56:47.406Z,102094.84
2022-08-05T20:59:19.149Z,102093.22
2022-08-05T21:01:53.001Z,102085.38
2022-08-05T21:04:19.466Z,102088.28
2022-08-05T21:06:46.284Z,102080.94
2022-08-05T21:09:14.716Z,102092.97
2022-08-05T21:12:09.558Z,102100.22
2022-08-05T21:14:34.940Z,102101.19
2022-08-05T21:17:05.906Z,102105.78
2022-08-05T21:19:46.710Z,102094.00
2022-08-05T21:22:21.784Z,102100.31
2022-08-05T21:24:51.833Z,102103.72
2022-08-05T21:27:18.713Z,102100.19
2022-08-05T21:29:48.544Z,102110.59
2022-08-05T21:32:26.777Z,102112.13
2022-08-05T21:35:08.250Z,102112.44
2022-08-05T21:37:47.112Z,102114.00
2022-08-05T21:40:19.837Z,102126.09
2022-08-05T21:42:47.282Z,102130.16
2022-08-05T21:45:25.138Z,102122.31
2022-08-05T21:48:06.280Z,102118.56
2022-08-05T21:50:32.928Z,102123.91
2022-08-05T21:53:08.516Z,102123.75
2022-08-05T21:56:05.041Z,102120.84
2022-08-05T21:58:32.218Z,102124.78
2022-08-05T22:00:58.983Z,102126.50
2022-08-05T22:03:48.176Z,102120.72
2022-08-05T22:06:12.106Z,102128.59
2022-08-05T22:08:42.483Z,102129.91
2022-08-05T22:11:11.843Z,102137.47
2022-08-05T22:14:19.400Z,102139.31
2022-08-05T22:16:42.098Z,102149.78
2022-08-05T22:20:02.074Z,102152.53
2022-08-05T22:22:01.518Z,102144.16
2022-08-05T22:24:51.783Z,102153.34
2022-08-05T22:28:08.771Z,102149.09
2022-08-05T22:30:24.560Z,102151.16
2022-08-05T22:32:58.670Z,102150.97
2022-08-05T22:35:25.210Z,102143.50
2022-08-05T22:37:58.953Z,102154.75
2022-08-05T22:40:27.682Z,102150.84
2022-08-05T22:42:58.224Z,102161.59
2022-08-05T22:45:26.312Z,102158.56
2022-08-05T22:47:55.386Z,102154.94
2022-08-05T22:50:26.702Z,102159.22
2022-08-05T22:52:54.854Z,102165.22
2022-08-05T22:55:23.605Z,102160.78
2022-08-05T22:57:51.853Z,102163.31
2022-08-05T23:00:20.965Z,102177.81
2022-08-05T23:02:48.528Z,102170.16
2022-08-05T23:05:16.537Z,102174.75
2022-08-05T23:07:44.832Z,102180.75
2022-08-05T23:10:16.259Z,102182.97
2022-08-05T23:12:46.894Z,102184.50
2022-08-05T23:15:13.340Z,102186.03
2022-08-05T23:18:01.056Z,102185.03
2022-08-05T23:20:26.202Z,102187.06
2022-08-05T23:22:55.931Z,102181.28
2022-08-05T23:25:53.203Z,102190.81
2022-08-05T23:28:09.058Z,102184.47
2022-08-05T23:30:40.514Z,102189.28
2022-08-05T23:33:21.859Z,102193.56
2022-08-05T23:35:49.745Z,102194.72
2022-08-05T23:38:16.240Z,102204.06
2022-08-05T23:40:50.058Z,102203.06
2022-08-05T23:43:25.387Z,102200.84
2022-08-05T23:46:04.783Z,102207.81
2022-08-05T23:48:31.204Z,102202.19
2022-08-05T23:50:58.601Z,102207.63
2022-08-05T23:53:28.328Z,102211.91
2022-08-05T23:56:11.750Z,102212.63
2022-08-05T23:58:38.388Z,102210.56
